sensor_id;sensor_type;location;lat;lon;timestamp;pressure;altitude;pressure_sealevel;temperature;humidity
57600;BME280;43426;43.594;24.334;2023-05-20T00:02:07;101528.44;;;12.31;100.00
57600;BME280;43426;43.594;24.334;2023-05-20T00:04:33;101509.09;;;12.18;100.00
57600;BME280;43426;43.594;24.334;2023-05-20T00:07:00;101504.50;;;12.10;100.00
57600;BME280;43426;43.594;24.334;2023-05-20T00:09:26;101513.84;;;12.16;100.00
57600;BME280;43426;43.594;24.334;2023-05-20T00:11:52;101534.88;;;12.30;100.00
57600;BME280;43426;43.594;24.334;2023-05-20T00:14:17;101514.34;;;12.19;100.00
57600;BME280;43426;43.594;24.334;2023-05-20T00:16:42;101535.84;;;12.21;100.00
57600;BME280;43426;43.594;24.334;2023-05-20T00:19:08;101515.19;;;12.12;100.00
57600;BME280;43426;43.594;24.334;2023-05-20T00:21:33;101484.25;;;11.88;100.00
57600;BME280;43426;43.594;24.334;2023-05-20T00:23:59;101536.50;;;12.15;100.00
57600;BME280;43426;43.594;24.334;2023-05-20T00:26:24;101510.44;;;11.87;100.00
57600;BME280;43426;43.594;24.334;2023-05-20T00:28:50;101544.41;;;12.08;100.00
57600;BME280;43426;43.594;24.334;2023-05-20T00:31:15;101529.22;;;11.89;100.00
57600;BME280;43426;43.594;24.334;2023-05-20T00:33:41;101509.84;;;11.67;100.00
57600;BME280;43426;43.594;24.334;2023-05-20T00:36:06;101534.34;;;11.74;100.00
57600;BME280;43426;43.594;24.334;2023-05-20T00:38:34;101539.31;;;11.79;100.00
57600;BME280;43426;43.594;24.334;2023-05-20T00:40:59;101544.06;;;11.85;100.00
57600;BME280;43426;43.594;24.334;2023-05-20T00:43:25;101542.69;;;11.81;100.00
57600;BME280;43426;43.594;24.334;2023-05-20T00:45:54;101519.78;;;11.67;100.00
57600;BME280;43426;43.594;24.334;2023-05-20T00:48:20;101523.97;;;11.61;100.00
57600;BME280;43426;43.594;24.334;2023-05-20T00:50:48;101531.09;;;11.62;100.00
57600;BME280;43426;43.594;24.334;2023-05-20T00:53:16;101506.38;;;11.57;100.00
57600;BME280;43426;43.594;24.334;2023-05-20T00:55:43;101532.03;;;11.79;100.00
57600;BME280;43426;43.594;24.334;2023-05-20T00:58:08;101514.72;;;11.64;100.00
57600;BME280;43426;43.594;24.334;2023-05-20T01:00:34;101528.13;;;11.73;100.00
57600;BME280;43426;43.594;24.334;2023-05-20T01:02:59;101521.88;;;11.73;100.00
57600;BME280;43426;43.594;24.334;2023-05-20T01:05:24;101534.84;;;11.69;100.00
57600;BME280;43426;43.594;24.334;2023-05-20T01:07:50;101524.88;;;11.70;100.00
57600;BME280;43426;43.594;24.334;2023-05-20T01:10:15;101513.34;;;11.59;100.00
57600;BME280;43426;43.594;24.334;2023-05-20T01:12:41;101521.13;;;11.63;100.00
57600;BME280;43426;43.594;24.334;2023-05-20T01:15:12;101495.25;;;11.60;100.00
57600;BME280;43426;43.594;24.334;2023-05-20T01:17:42;101520.16;;;11.72;100.00
57600;BME280;43426;43.594;24.334;2023-05-20T01:20:10;101500.66;;;11.60;100.00
57600;BME280;43426;43.594;24.334;2023-05-20T01:22:49;101491.50;;;11.53;100.00
57600;BME280;43426;43.594;24.334;2023-05-20T01:25:16;101491.31;;;11.54;100.00
57600;BME280;43426;43.594;24.334;2023-05-20T01:27:42;101474.22;;;11.46;100.00
57600;BME280;43426;43.594;24.334;2023-05-20T01:30:08;101491.81;;;11.50;100.00
57600;BME280;43426;43.594;24.334;2023-05-20T01:32:37;101462.13;;;11.32;100.00
57600;BME280;43426;43.594;24.334;2023-05-20T01:35:05;101463.41;;;11.19;100.00
57600;BME280;43426;43.594;24.334;2023-05-20T01:37:30;101491.16;;;11.30;100.00
57600;BME280;43426;43.594;24.334;2023-05-20T01:39:56;101495.56;;;11.31;100.00
57600;BME280;43426;43.594;24.334;2023-05-20T01:42:25;101465.88;;;11.13;100.00
57600;BME280;43426;43.594;24.334;2023-05-20T01:44:51;101501.13;;;11.29;100.00
57600;BME280;43426;43.594;24.334;2023-05-20T01:47:16;101490.28;;;11.03;100.00
57600;BME280;43426;43.594;24.334;2023-05-20T01:49:42;101489.94;;;11.06;100.00
57600;BME280;43426;43.594;24.334;2023-05-20T01:52:10;101499.28;;;11.12;100.00
57600;BME280;43426;43.594;24.334;2023-05-20T01:54:35;101501.69;;;11.15;100.00
57600;BME280;43426;43.594;24.334;2023-05-20T01:57:01;101494.91;;;11.11;100.00
57600;BME280;43426;43.594;24.334;2023-05-20T01:59:27;101501.78;;;11.05;100.00
57600;BME280;43426;43.594;24.334;2023-05-20T02:01:52;101512.78;;;11.12;100.00
57600;BME280;43426;43.594;24.334;2023-05-20T02:04:20;101505.56;;;11.12;100.00
57600;BME280;43426;43.594;24.334;2023-05-20T02:06:47;101505.00;;;11.08;100.00
57600;BME280;43426;43.594;24.334;2023-05-20T02:09:13;101492.06;;;10.94;100.00
57600;BME280;43426;43.594;24.334;2023-05-20T02:11:38;101486.50;;;10.96;100.00
57600;BME280;43426;43.594;24.334;2023-05-20T02:14:04;101497.81;;;10.99;100.00
57600;BME280;43426;43.594;24.334;2023-05-20T02:16:30;101511.88;;;11.03;100.00
57600;BME280;43426;43.594;24.334;2023-05-20T02:18:55;101510.94;;;11.12;100.00
57600;BME280;43426;43.594;24.334;2023-05-20T02:21:24;101503.44;;;11.06;100.00
57600;BME280;43426;43.594;24.334;2023-05-20T02:23:52;101479.31;;;10.86;100.00
57600;BME280;43426;43.594;24.334;2023-05-20T02:26:17;101509.63;;;11.16;100.00
57600;BME280;43426;43.594;24.334;2023-05-20T02:28:44;101501.78;;;11.05;100.00
57600;BME280;43426;43.594;24.334;2023-05-20T02:31:11;101506.09;;;10.98;100.00
57600;BME280;43426;43.594;24.334;2023-05-20T02:33:36;101487.03;;;10.81;100.00
57600;BME280;43426;43.594;24.334;2023-05-20T02:36:02;101498.44;;;10.93;100.00
57600;BME280;43426;43.594;24.334;2023-05-20T02:38:27;101479.00;;;10.89;100.00
57600;BME280;43426;43.594;24.334;2023-05-20T02:40:53;101505.63;;;11.02;100.00
57600;BME280;43426;43.594;24.334;2023-05-20T02:43:20;101495.44;;;10.96;100.00
57600;BME280;43426;43.594;24.334;2023-05-20T02:45:45;101507.28;;;11.21;100.00
57600;BME280;43426;43.594;24.334;2023-05-20T02:48:11;101511.69;;;11.22;100.00
57600;BME280;43426;43.594;24.334;2023-05-20T02:50:39;101509.59;;;11.34;100.00
57600;BME280;43426;43.594;24.334;2023-05-20T02:53:05;101503.88;;;11.37;100.00
57600;BME280;43426;43.594;24.334;2023-05-20T02:55:33;101516.75;;;11.44;100.00
57600;BME280;43426;43.594;24.334;2023-05-20T02:58:00;101512.28;;;11.52;100.00
57600;BME280;43426;43.594;24.334;2023-05-20T03:00:25;101515.66;;;11.54;100.00
57600;BME280;43426;43.594;24.334;2023-05-20T03:02:54;101477.53;;;11.57;100.00
57600;BME280;43426;43.594;24.334;2023-05-20T03:05:20;101485.56;;;11.49;100.00
57600;BME280;43426;43.594;24.334;2023-05-20T03:07:46;101483.47;;;11.43;100.00
57600;BME280;43426;43.594;24.334;2023-05-20T03:10:12;101462.13;;;11.32;100.00
57600;BME280;43426;43.594;24.334;2023-05-20T03:12:38;101457.34;;;11.52;100.00
57600;BME280;43426;43.594;24.334;2023-05-20T03:15:04;101505.94;;;11.62;100.00
57600;BME280;43426;43.594;24.334;2023-05-20T03:17:29;101500.59;;;11.52;100.00
57600;BME280;43426;43.594;24.334;2023-05-20T03:19:58;101473.25;;;11.29;100.00
57600;BME280;43426;43.594;24.334;2023-05-20T03:22:23;101477.81;;;11.28;100.00
57600;BME280;43426;43.594;24.334;2023-05-20T03:24:48;101490.31;;;11.29;100.00
57600;BME280;43426;43.594;24.334;2023-05-20T03:27:14;101485.38;;;11.24;100.00
57600;BME280;43426;43.594;24.334;2023-05-20T03:29:40;101518.78;;;11.41;100.00
57600;BME280;43426;43.594;24.334;2023-05-20T03:32:05;101495.88;;;11.28;100.00
57600;BME280;43426;43.594;24.334;2023-05-20T03:34:31;101484.06;;;11.29;100.00
57600;BME280;43426;43.594;24.334;2023-05-20T03:36:56;101502.72;;;11.40;100.00
57600;BME280;43426;43.594;24.334;2023-05-20T03:39:24;101517.53;;;11.54;100.00
57600;BME280;43426;43.594;24.334;2023-05-20T03:41:49;101534.06;;;11.51;100.00
57600;BME280;43426;43.594;24.334;2023-05-20T03:44:15;101521.69;;;11.48;100.00
57600;BME280;43426;43.594;24.334;2023-05-20T03:46:41;101513.59;;;11.48;100.00
57600;BME280;43426;43.594;24.334;2023-05-20T03:49:06;101503.63;;;11.49;100.00
57600;BME280;43426;43.594;24.334;2023-05-20T03:51:31;101520.00;;;11.73;100.00
57600;BME280;43426;43.594;24.334;2023-05-20T03:53:57;101530.53;;;11.85;100.00
57600;BME280;43426;43.594;24.334;2023-05-20T03:56:22;101536.47;;;12.06;100.00
57600;BME280;43426;43.594;24.334;2023-05-20T03:58:48;101524.09;;;12.04;100.00
57600;BME280;43426;43.594;24.334;2023-05-20T04:01:13;101536.50;;;12.15;100.00
57600;BME280;43426;43.594;24.334;2023-05-20T04:03:39;101525.31;;;12.09;100.00
57600;BME280;43426;43.594;24.334;2023-05-20T04:06:06;101536.88;;;12.20;100.00
57600;BME280;43426;43.594;24.334;2023-05-20T04:08:31;101535.22;;;12.35;100.00
57600;BME280;43426;43.594;24.334;2023-05-20T04:10:58;101516.59;;;12.32;100.00
57600;BME280;43426;43.594;24.334;2023-05-20T04:13:26;101533.59;;;12.51;100.00
57600;BME280;43426;43.594;24.334;2023-05-20T04:15:52;101511.28;;;12.65;100.00
57600;BME280;43426;43.594;24.334;2023-05-20T04:18:17;101525.59;;;13.00;100.00
57600;BME280;43426;43.594;24.334;2023-05-20T04:20:44;101531.69;;;13.27;100.00
57600;BME280;43426;43.594;24.334;2023-05-20T04:23:10;101541.19;;;13.48;100.00
57600;BME280;43426;43.594;24.334;2023-05-20T04:25:36;101527.28;;;13.51;100.00
57600;BME280;43426;43.594;24.334;2023-05-20T04:28:01;101542.03;;;13.65;100.00
57600;BME280;43426;43.594;24.334;2023-05-20T04:30:27;101505.22;;;13.78;100.00
57600;BME280;43426;43.594;24.334;2023-05-20T04:32:52;101543.22;;;14.26;100.00
57600;BME280;43426;43.594;24.334;2023-05-20T04:35:18;101547.28;;;14.30;100.00
57600;BME280;43426;43.594;24.334;2023-05-20T04:37:44;101557.38;;;14.45;100.00
57600;BME280;43426;43.594;24.334;2023-05-20T04:40:12;101527.94;;;14.25;100.00
57600;BME280;43426;43.594;24.334;2023-05-20T04:42:38;101559.28;;;14.44;100.00
57600;BME280;43426;43.594;24.334;2023-05-20T04:45:04;101553.75;;;14.61;100.00
57600;BME280;43426;43.594;24.334;2023-05-20T04:47:30;101564.81;;;14.91;100.00
57600;BME280;43426;43.594;24.334;2023-05-20T04:50:05;101562.22;;;14.97;100.00
57600;BME280;43426;43.594;24.334;2023-05-20T04:52:32;101571.47;;;15.11;100.00
57600;BME280;43426;43.594;24.334;2023-05-20T04:54:58;101573.38;;;15.34;100.00
57600;BME280;43426;43.594;24.334;2023-05-20T04:57:26;101565.34;;;15.56;100.00
57600;BME280;43426;43.594;24.334;2023-05-20T04:59:51;101574.94;;;15.66;100.00
57600;BME280;43426;43.594;24.334;2023-05-20T05:02:16;101578.56;;;15.82;100.00
57600;BME280;43426;43.594;24.334;2023-05-20T05:04:42;101579.94;;;15.78;100.00
57600;BME280;43426;43.594;24.334;2023-05-20T05:07:07;101581.84;;;15.54;100.00
57600;BME280;43426;43.594;24.334;2023-05-20T05:09:32;101575.78;;;15.67;100.00
57600;BME280;43426;43.594;24.334;2023-05-20T05:11:58;101578.03;;;16.02;100.00
57600;BME280;43426;43.594;24.334;2023-05-20T05:14:23;101572.41;;;16.18;100.00
57600;BME280;43426;43.594;24.334;2023-05-20T05:16:49;101569.19;;;16.44;100.00
57600;BME280;43426;43.594;24.334;2023-05-20T05:19:14;101540.69;;;16.62;97.39
57600;BME280;43426;43.594;24.334;2023-05-20T05:21:40;101559.75;;;17.13;95.54
57600;BME280;43426;43.594;24.334;2023-05-20T05:24:05;101564.34;;;17.34;94.84
57600;BME280;43426;43.594;24.334;2023-05-20T05:26:31;101554.69;;;17.60;96.08
57600;BME280;43426;43.594;24.334;2023-05-20T05:28:56;101558.78;;;17.71;93.69
57600;BME280;43426;43.594;24.334;2023-05-20T05:31:21;101543.31;;;17.57;94.06
57600;BME280;43426;43.594;24.334;2023-05-20T05:33:47;101561.41;;;17.58;93.13
57600;BME280;43426;43.594;24.334;2023-05-20T05:36:12;101534.09;;;17.58;93.74
57600;BME280;43426;43.594;24.334;2023-05-20T05:38:38;101553.38;;;18.06;93.53
57600;BME280;43426;43.594;24.334;2023-05-20T05:41:03;101543.22;;;17.93;91.79
57600;BME280;43426;43.594;24.334;2023-05-20T05:43:28;101531.06;;;17.46;91.71
57600;BME280;43426;43.594;24.334;2023-05-20T05:45:54;101563.63;;;17.26;94.76
57600;BME280;43426;43.594;24.334;2023-05-20T05:48:20;101560.25;;;17.45;97.36
57600;BME280;43426;43.594;24.334;2023-05-20T05:50:46;101579.38;;;18.02;94.28
57600;BME280;43426;43.594;24.334;2023-05-20T05:53:11;101606.31;;;18.47;93.95
57600;BME280;43426;43.594;24.334;2023-05-20T05:55:37;101575.09;;;18.63;90.57
57600;BME280;43426;43.594;24.334;2023-05-20T05:58:02;101579.88;;;19.02;90.22
57600;BME280;43426;43.594;24.334;2023-05-20T06:00:29;101584.13;;;19.32;87.37
57600;BME280;43426;43.594;24.334;2023-05-20T06:02:55;101571.94;;;19.61;86.84
57600;BME280;43426;43.594;24.334;2023-05-20T06:05:20;101560.53;;;19.57;87.02
57600;BME280;43426;43.594;24.334;2023-05-20T06:07:46;101546.66;;;19.66;84.70
57600;BME280;43426;43.594;24.334;2023-05-20T06:10:11;101542.03;;;19.86;85.48
57600;BME280;43426;43.594;24.334;2023-05-20T06:12:37;101559.47;;;20.12;85.82
57600;BME280;43426;43.594;24.334;2023-05-20T06:15:02;101561.16;;;20.13;84.35
57600;BME280;43426;43.594;24.334;2023-05-20T06:17:28;101553.91;;;20.32;82.76
57600;BME280;43426;43.594;24.334;2023-05-20T06:19:53;101551.75;;;20.48;83.24
57600;BME280;43426;43.594;24.334;2023-05-20T06:22:19;101551.00;;;20.79;82.67
57600;BME280;43426;43.594;24.334;2023-05-20T06:24:44;101551.75;;;20.93;83.00
57600;BME280;43426;43.594;24.334;2023-05-20T06:27:10;101556.72;;;21.09;82.83
57600;BME280;43426;43.594;24.334;2023-05-20T06:29:36;101542.66;;;20.99;81.69
57600;BME280;43426;43.594;24.334;2023-05-20T06:32:01;101551.91;;;21.05;80.04
57600;BME280;43426;43.594;24.334;2023-05-20T06:34:27;101512.03;;;21.02;81.97
57600;BME280;43426;43.594;24.334;2023-05-20T06:36:52;101537.88;;;21.45;78.97
57600;BME280;43426;43.594;24.334;2023-05-20T06:39:17;101541.31;;;21.66;78.83
57600;BME280;43426;43.594;24.334;2023-05-20T06:41:43;101550.09;;;21.74;78.34
57600;BME280;43426;43.594;24.334;2023-05-20T06:44:08;101549.00;;;21.82;77.95
57600;BME280;43426;43.594;24.334;2023-05-20T06:46:34;101538.00;;;22.01;78.42
57600;BME280;43426;43.594;24.334;2023-05-20T06:48:59;101531.28;;;22.15;78.01
57600;BME280;43426;43.594;24.334;2023-05-20T06:51:26;101520.31;;;22.34;76.13
57600;BME280;43426;43.594;24.334;2023-05-20T06:53:51;101515.41;;;22.36;74.35
57600;BME280;43426;43.594;24.334;2023-05-20T06:56:17;101544.22;;;22.52;75.81
57600;BME280;43426;43.594;24.334;2023-05-20T06:58:42;101511.53;;;22.74;76.08
57600;BME280;43426;43.594;24.334;2023-05-20T07:01:08;101521.78;;;22.97;75.42
57600;BME280;43426;43.594;24.334;2023-05-20T07:03:33;101523.41;;;23.28;73.40
57600;BME280;43426;43.594;24.334;2023-05-20T07:05:58;101524.53;;;23.27;72.01
57600;BME280;43426;43.594;24.334;2023-05-20T07:08:26;101536.00;;;23.48;72.11
57600;BME280;43426;43.594;24.334;2023-05-20T07:10:54;101508.94;;;23.45;70.73
57600;BME280;43426;43.594;24.334;2023-05-20T07:13:20;101519.03;;;23.75;73.89
57600;BME280;43426;43.594;24.334;2023-05-20T07:15:48;101528.63;;;23.96;70.46
57600;BME280;43426;43.594;24.334;2023-05-20T07:18:13;101524.03;;;24.13;70.27
57600;BME280;43426;43.594;24.334;2023-05-20T07:20:39;101530.19;;;24.04;66.13
57600;BME280;43426;43.594;24.334;2023-05-20T07:23:04;101499.38;;;23.83;71.16
57600;BME280;43426;43.594;24.334;2023-05-20T07:25:30;101510.28;;;24.02;68.93
57600;BME280;43426;43.594;24.334;2023-05-20T07:27:55;101527.50;;;24.09;66.49
57600;BME280;43426;43.594;24.334;2023-05-20T07:30:21;101510.50;;;24.12;67.11
57600;BME280;43426;43.594;24.334;2023-05-20T07:32:46;101506.38;;;24.26;67.81
57600;BME280;43426;43.594;24.334;2023-05-20T07:35:11;101497.69;;;24.06;70.67
57600;BME280;43426;43.594;24.334;2023-05-20T07:37:37;101521.13;;;24.20;67.95
57600;BME280;43426;43.594;24.334;2023-05-20T07:40:03;101504.75;;;24.13;67.39
57600;BME280;43426;43.594;24.334;2023-05-20T07:42:29;101521.34;;;24.30;65.01
57600;BME280;43426;43.594;24.334;2023-05-20T07:44:55;101513.78;;;24.38;67.12
57600;BME280;43426;43.594;24.334;2023-05-20T07:47:20;101505.09;;;24.46;65.38
57600;BME280;43426;43.594;24.334;2023-05-20T07:49:46;101514.50;;;24.74;62.51
57600;BME280;43426;43.594;24.334;2023-05-20T07:52:11;101503.34;;;24.40;64.24
57600;BME280;43426;43.594;24.334;2023-05-20T07:54:36;101504.59;;;24.61;62.53
57600;BME280;43426;43.594;24.334;2023-05-20T07:57:02;101476.13;;;24.89;65.12
57600;BME280;43426;43.594;24.334;2023-05-20T07:59:27;101504.44;;;25.30;61.23
57600;BME280;43426;43.594;24.334;2023-05-20T08:01:53;101482.00;;;25.10;58.00
57600;BME280;43426;43.594;24.334;2023-05-20T08:04:18;101476.63;;;25.03;57.47
57600;BME280;43426;43.594;24.334;2023-05-20T08:06:44;101506.59;;;25.11;57.04
57600;BME280;43426;43.594;24.334;2023-05-20T08:09:09;101491.72;;;25.12;58.11
57600;BME280;43426;43.594;24.334;2023-05-20T08:11:39;101508.06;;;25.48;58.49
57600;BME280;43426;43.594;24.334;2023-05-20T08:14:05;101497.06;;;25.19;57.97
57600;BME280;43426;43.594;24.334;2023-05-20T08:16:30;101487.56;;;25.44;60.43
57600;BME280;43426;43.594;24.334;2023-05-20T08:18:56;101492.47;;;25.42;57.52
57600;BME280;43426;43.594;24.334;2023-05-20T08:21:21;101477.28;;;25.61;58.63
57600;BME280;43426;43.594;24.334;2023-05-20T08:23:47;101490.66;;;25.87;58.25
57600;BME280;43426;43.594;24.334;2023-05-20T08:26:12;101500.59;;;26.05;57.88
57600;BME280;43426;43.594;24.334;2023-05-20T08:28:38;101484.59;;;26.07;54.28
57600;BME280;43426;43.594;24.334;2023-05-20T08:31:03;101492.59;;;26.30;58.56
57600;BME280;43426;43.594;24.334;2023-05-20T08:33:29;101492.03;;;26.28;56.66
57600;BME280;43426;43.594;24.334;2023-05-20T08:35:54;101496.19;;;26.53;54.97
57600;BME280;43426;43.594;24.334;2023-05-20T08:38:20;101492.69;;;26.36;52.97
57600;BME280;43426;43.594;24.334;2023-05-20T08:40:50;101479.16;;;26.39;54.12
57600;BME280;43426;43.594;24.334;2023-05-20T08:43:16;101493.16;;;26.55;55.15
57600;BME280;43426;43.594;24.334;2023-05-20T08:45:42;101495.44;;;26.85;53.52
57600;BME280;43426;43.594;24.334;2023-05-20T08:48:07;101493.00;;;27.21;52.33
57600;BME280;43426;43.594;24.334;2023-05-20T08:50:33;101475.38;;;27.00;53.18
57600;BME280;43426;43.594;24.334;2023-05-20T08:52:59;101500.59;;;26.49;53.80
57600;BME280;43426;43.594;24.334;2023-05-20T08:57:53;101482.19;;;25.20;52.30
57600;BME280;43426;43.594;24.334;2023-05-20T09:00:20;101496.09;;;24.51;56.09
57600;BME280;43426;43.594;24.334;2023-05-20T09:02:48;101471.53;;;24.08;58.95
57600;BME280;43426;43.594;24.334;2023-05-20T09:05:13;101498.50;;;24.06;60.28
57600;BME280;43426;43.594;24.334;2023-05-20T09:07:39;101478.63;;;23.92;61.98
57600;BME280;43426;43.594;24.334;2023-05-20T09:10:07;101485.09;;;23.74;62.20
57600;BME280;43426;43.594;24.334;2023-05-20T09:12:32;101467.38;;;23.46;63.18
57600;BME280;43426;43.594;24.334;2023-05-20T09:14:58;101486.25;;;23.07;65.14
57600;BME280;43426;43.594;24.334;2023-05-20T09:17:23;101504.56;;;23.02;63.46
57600;BME280;43426;43.594;24.334;2023-05-20T09:19:49;101494.22;;;23.27;64.84
57600;BME280;43426;43.594;24.334;2023-05-20T09:22:26;101490.38;;;23.76;66.07
57600;BME280;43426;43.594;24.334;2023-05-20T09:24:51;101491.22;;;24.41;62.56
57600;BME280;43426;43.594;24.334;2023-05-20T09:27:18;101490.78;;;24.90;62.47
57600;BME280;43426;43.594;24.334;2023-05-20T09:29:46;101497.91;;;25.03;57.92
57600;BME280;43426;43.594;24.334;2023-05-20T09:32:13;101484.81;;;24.81;58.25
57600;BME280;43426;43.594;24.334;2023-05-20T09:34:39;101495.91;;;24.98;59.50
57600;BME280;43426;43.594;24.334;2023-05-20T09:37:10;101482.91;;;25.15;58.57
57600;BME280;43426;43.594;24.334;2023-05-20T09:40:04;101494.34;;;25.36;58.47
57600;BME280;43426;43.594;24.334;2023-05-20T09:42:41;101459.03;;;25.38;56.57
57600;BME280;43426;43.594;24.334;2023-05-20T09:45:07;101496.38;;;25.80;55.28
57600;BME280;43426;43.594;24.334;2023-05-20T09:47:39;101484.34;;;25.91;55.08
57600;BME280;43426;43.594;24.334;2023-05-20T09:50:07;101451.56;;;25.39;54.70
57600;BME280;43426;43.594;24.334;2023-05-20T09:52:34;101473.19;;;24.79;55.55
57600;BME280;43426;43.594;24.334;2023-05-20T09:55:02;101442.78;;;24.04;55.94
57600;BME280;43426;43.594;24.334;2023-05-20T09:57:33;101462.28;;;24.14;57.78
57600;BME280;43426;43.594;24.334;2023-05-20T09:59:58;101452.69;;;24.17;60.16
57600;BME280;43426;43.594;24.334;2023-05-20T10:02:24;101432.97;;;23.96;57.63
57600;BME280;43426;43.594;24.334;2023-05-20T10:04:51;101453.47;;;23.77;56.93
57600;BME280;43426;43.594;24.334;2023-05-20T10:07:44;101462.84;;;23.64;60.36
57600;BME280;43426;43.594;24.334;2023-05-20T10:10:24;101454.09;;;23.32;57.89
57600;BME280;43426;43.594;24.334;2023-05-20T10:20:58;101436.97;;;23.29;55.95
57600;BME280;43426;43.594;24.334;2023-05-20T10:23:27;101429.75;;;22.93;57.61
57600;BME280;43426;43.594;24.334;2023-05-20T10:25:54;101422.19;;;22.76;59.19
57600;BME280;43426;43.594;24.334;2023-05-20T10:28:35;101440.72;;;22.81;58.45
57600;BME280;43426;43.594;24.334;2023-05-20T10:31:02;101415.56;;;22.66;61.66
57600;BME280;43426;43.594;24.334;2023-05-20T10:33:28;101425.75;;;22.77;62.35
57600;BME280;43426;43.594;24.334;2023-05-20T10:35:58;101382.63;;;22.47;61.40
57600;BME280;43426;43.594;24.334;2023-05-20T10:38:24;101426.97;;;22.81;60.59
57600;BME280;43426;43.594;24.334;2023-05-20T10:40:49;101418.22;;;22.84;62.78
57600;BME280;43426;43.594;24.334;2023-05-20T10:43:16;101401.97;;;22.83;61.57
57600;BME280;43426;43.594;24.334;2023-05-20T10:45:56;101393.38;;;23.03;64.26
57600;BME280;43426;43.594;24.334;2023-05-20T10:48:30;101395.56;;;23.12;62.90
57600;BME280;43426;43.594;24.334;2023-05-20T10:50:57;101406.13;;;23.27;62.64
57600;BME280;43426;43.594;24.334;2023-05-20T10:53:25;101377.59;;;23.10;61.64
57600;BME280;43426;43.594;24.334;2023-05-20T10:55:52;101414.47;;;23.44;61.69
57600;BME280;43426;43.594;24.334;2023-05-20T10:58:23;101412.44;;;23.52;60.44
57600;BME280;43426;43.594;24.334;2023-05-20T11:00:52;101412.91;;;23.49;60.82
57600;BME280;43426;43.594;24.334;2023-05-20T11:03:20;101413.63;;;23.44;60.62
57600;BME280;43426;43.594;24.334;2023-05-20T11:05:46;101393.66;;;23.25;61.19
57600;BME280;43426;43.594;24.334;2023-05-20T11:08:12;101401.19;;;23.29;62.21
57600;BME280;43426;43.594;24.334;2023-05-20T11:10:40;101383.59;;;23.31;60.06
57600;BME280;43426;43.594;24.334;2023-05-20T11:13:05;101404.66;;;23.37;61.94
57600;BME280;43426;43.594;24.334;2023-05-20T11:15:33;101395.91;;;23.52;62.28
57600;BME280;43426;43.594;24.334;2023-05-20T11:18:03;101398.53;;;23.58;60.54
57600;BME280;43426;43.594;24.334;2023-05-20T11:20:29;101401.53;;;23.57;60.80
57600;BME280;43426;43.594;24.334;2023-05-20T11:22:59;101405.94;;;23.58;60.17
57600;BME280;43426;43.594;24.334;2023-05-20T11:25:25;101373.13;;;23.56;60.98
57600;BME280;43426;43.594;24.334;2023-05-20T11:27:52;101407.09;;;23.86;60.89
57600;BME280;43426;43.594;24.334;2023-05-20T11:30:19;101399.56;;;23.93;57.77
57600;BME280;43426;43.594;24.334;2023-05-20T11:32:58;101382.97;;;24.05;57.11
57600;BME280;43426;43.594;24.334;2023-05-20T11:35:24;101398.78;;;24.38;56.99
57600;BME280;43426;43.594;24.334;2023-05-20T11:38:01;101369.00;;;24.40;55.74
57600;BME280;43426;43.594;24.334;2023-05-20T11:40:31;101359.38;;;24.72;55.38
57600;BME280;43426;43.594;24.334;2023-05-20T11:42:58;101357.34;;;24.67;54.32
57600;BME280;43426;43.594;24.334;2023-05-20T11:45:24;101367.03;;;25.04;56.10
57600;BME280;43426;43.594;24.334;2023-05-20T11:48:01;101371.00;;;25.47;57.15
57600;BME280;43426;43.594;24.334;2023-05-20T11:50:32;101369.06;;;25.70;53.98
57600;BME280;43426;43.594;24.334;2023-05-20T11:52:58;101372.78;;;26.03;55.47
57600;BME280;43426;43.594;24.334;2023-05-20T11:55:25;101351.31;;;25.65;53.09
57600;BME280;43426;43.594;24.334;2023-05-20T11:58:29;101370.84;;;25.20;54.34
57600;BME280;43426;43.594;24.334;2023-05-20T12:00:55;101355.75;;;25.05;53.83
57600;BME280;43426;43.594;24.334;2023-05-20T12:03:20;101350.53;;;25.09;53.17
57600;BME280;43426;43.594;24.334;2023-05-20T12:05:49;101354.03;;;25.60;57.21
57600;BME280;43426;43.594;24.334;2023-05-20T12:08:15;101345.00;;;26.14;53.16
57600;BME280;43426;43.594;24.334;2023-05-20T12:10:41;101352.09;;;26.65;52.28
57600;BME280;43426;43.594;24.334;2023-05-20T12:13:07;101354.94;;;26.70;51.01
57600;BME280;43426;43.594;24.334;2023-05-20T12:15:38;101349.50;;;26.53;51.57
57600;BME280;43426;43.594;24.334;2023-05-20T12:18:03;101340.44;;;26.63;51.11
57600;BME280;43426;43.594;24.334;2023-05-20T12:20:29;101334.59;;;26.92;51.01
57600;BME280;43426;43.594;24.334;2023-05-20T12:22:56;101336.16;;;27.20;49.31
57600;BME280;43426;43.594;24.334;2023-05-20T12:25:21;101318.03;;;27.50;46.59
57600;BME280;43426;43.594;24.334;2023-05-20T12:27:48;101301.97;;;27.52;47.03
57600;BME280;43426;43.594;24.334;2023-05-20T12:30:20;101310.84;;;27.59;43.70
57600;BME280;43426;43.594;24.334;2023-05-20T12:32:48;101308.13;;;27.80;48.88
57600;BME280;43426;43.594;24.334;2023-05-20T12:35:16;101289.91;;;28.05;48.98
57600;BME280;43426;43.594;24.334;2023-05-20T12:37:42;101302.72;;;28.47;46.07
57600;BME280;43426;43.594;24.334;2023-05-20T12:40:10;101289.09;;;28.56;45.63
57600;BME280;43426;43.594;24.334;2023-05-20T12:42:37;101297.66;;;28.95;43.31
57600;BME280;43426;43.594;24.334;2023-05-20T12:45:04;101289.28;;;29.11;43.10